Time;durP1;ratioP1;P1;durP2;ratioP2;P2;SDS_P1;SDS_P2;PMS_P1;PMS_P2;Temp;Humidity;BMP_temperature;BMP_pressure;BME280_temperature;BME280_humidity;BME280_pressure;Samples;Min_cycle;Max_cycle;Signal;HPM_P1;HPM_P2
2021/05/19 00:00:09;;;;;;;3.77;3.27;;;12.10;99.90;;;;;;5009074;28;20205;-82
2021/05/19 00:02:36;;;;;;;5.63;3.23;;;12.10;99.90;;;;;;5008603;28;20209;-84
2021/05/19 00:05:03;;;;;;;3.03;2.83;;;12.00;99.90;;;;;;5008571;28;20244;-81
2021/05/19 00:07:29;;;;;;;3.77;3.30;;;12.00;99.90;;;;;;5008598;28;20217;-81
2021/05/19 00:09:55;;;;;;;3.60;3.30;;;12.00;99.90;;;;;;5008606;28;20279;-82
2021/05/19 00:12:21;;;;;;;4.40;3.80;;;12.00;99.90;;;;;;5008412;28;20705;-82
2021/05/19 00:14:47;;;;;;;3.80;3.50;;;11.90;99.90;;;;;;5008428;28;20213;-82
2021/05/19 00:17:14;;;;;;;6.77;4.13;;;11.90;99.90;;;;;;5008521;28;20206;-82
2021/05/19 00:19:41;;;;;;;3.33;3.13;;;11.80;99.90;;;;;;5008473;28;20237;-82
2021/05/19 00:22:07;;;;;;;3.93;3.63;;;11.80;99.90;;;;;;5008415;28;20202;-81
2021/05/19 00:24:33;;;;;;;3.73;3.43;;;11.80;99.90;;;;;;5007881;28;20641;-81
2021/05/19 00:26:59;;;;;;;3.60;3.40;;;11.80;99.90;;;;;;5008331;28;20244;-82
2021/05/19 00:29:26;;;;;;;4.47;4.07;;;11.80;99.90;;;;;;5008286;28;20209;-82
2021/05/19 00:31:52;;;;;;;3.97;3.50;;;11.70;99.90;;;;;;5007961;28;20770;-82
2021/05/19 00:34:18;;;;;;;3.50;3.30;;;11.70;99.90;;;;;;5008321;28;20210;-81
2021/05/19 00:36:45;;;;;;;4.23;3.70;;;11.70;99.90;;;;;;5007872;28;20249;-81
2021/05/19 00:39:12;;;;;;;3.90;3.60;;;11.70;99.90;;;;;;5008104;28;20639;-82
2021/05/19 00:41:41;;;;;;;4.33;4.03;;;11.70;99.90;;;;;;5007884;28;20667;-82
2021/05/19 00:44:09;;;;;;;4.00;3.60;;;11.60;99.90;;;;;;5007793;28;20241;-82
2021/05/19 00:46:35;;;;;;;4.47;4.07;;;11.60;99.90;;;;;;5007979;28;20217;-81
2021/05/19 00:49:02;;;;;;;4.97;4.17;;;11.60;99.90;;;;;;5008079;28;20247;-81
2021/05/19 00:51:28;;;;;;;4.40;4.10;;;11.50;99.90;;;;;;5007610;28;20720;-80
2021/05/19 00:53:56;;;;;;;4.60;4.10;;;11.30;99.90;;;;;;5007883;28;20977;-80
2021/05/19 00:56:23;;;;;;;4.20;3.83;;;11.20;99.90;;;;;;5007863;28;20216;-81
2021/05/19 00:58:51;;;;;;;4.40;4.03;;;11.30;99.90;;;;;;5007528;28;20316;-80
2021/05/19 01:01:17;;;;;;;4.33;4.03;;;11.30;99.90;;;;;;5007303;28;20732;-80
2021/05/19 01:03:44;;;;;;;4.20;3.90;;;11.40;99.90;;;;;;5006779;28;20253;-79
2021/05/19 01:06:16;;;;;;;3.80;3.60;;;11.40;99.90;;;;;;5007317;28;20309;-79
2021/05/19 01:11:27;;;;;;;3.77;3.47;;;11.50;99.90;;;;;;5007488;28;20197;-79
2021/05/19 01:13:54;;;;;;;5.17;4.30;;;11.50;99.90;;;;;;5007460;28;20213;-84
2021/05/19 01:16:20;;;;;;;4.13;3.67;;;11.60;99.90;;;;;;5007894;28;20209;-82
2021/05/19 01:18:46;;;;;;;4.30;3.90;;;11.60;99.90;;;;;;5007009;28;20205;-80
2021/05/19 01:21:12;;;;;;;5.40;4.23;;;11.60;99.90;;;;;;5007209;28;20205;-80
2021/05/19 01:23:40;;;;;;;4.53;4.20;;;11.60;99.90;;;;;;5006983;28;20214;-81
2021/05/19 01:26:08;;;;;;;4.43;4.03;;;11.70;99.90;;;;;;5007263;28;20238;-81
2021/05/19 01:28:34;;;;;;;4.03;3.70;;;11.70;99.90;;;;;;5007048;28;20213;-81
2021/05/19 01:31:01;;;;;;;4.53;4.17;;;11.60;99.90;;;;;;5007177;28;20241;-82
2021/05/19 01:33:27;;;;;;;3.93;3.73;;;11.60;99.90;;;;;;5007205;28;20225;-82
2021/05/19 01:35:54;;;;;;;4.80;4.40;;;11.70;99.90;;;;;;5007480;28;20270;-82
2021/05/19 01:38:20;;;;;;;4.70;4.30;;;11.60;99.90;;;;;;5007431;28;20206;-83
2021/05/19 01:40:47;;;;;;;4.40;4.10;;;11.60;99.90;;;;;;5007227;28;20213;-84
2021/05/19 01:43:14;;;;;;;4.17;3.93;;;11.70;99.90;;;;;;5006986;28;20234;-82
2021/05/19 01:45:40;;;;;;;4.80;4.03;;;11.70;99.90;;;;;;5007168;28;20241;-83
2021/05/19 01:48:13;;;;;;;4.00;3.70;;;11.70;99.90;;;;;;5006774;28;20255;-83
2021/05/19 01:50:42;;;;;;;4.00;3.80;;;11.60;99.90;;;;;;5007662;28;20200;-82
2021/05/19 01:53:08;;;;;;;5.20;3.93;;;11.70;99.90;;;;;;5007804;28;20213;-87
2021/05/19 01:55:35;;;;;;;4.30;4.00;;;11.70;99.90;;;;;;5009248;28;20209;-88
2021/05/19 01:58:02;;;;;;;4.13;3.90;;;11.70;99.90;;;;;;5009518;28;20695;-88
2021/05/19 02:00:29;;;;;;;4.17;3.87;;;11.70;99.90;;;;;;5008775;28;20232;-88
2021/05/19 02:02:57;;;;;;;3.80;3.60;;;11.60;99.90;;;;;;5009284;28;20235;-88
2021/05/19 02:05:25;;;;;;;4.40;4.10;;;11.70;99.90;;;;;;5009212;28;20225;-88
2021/05/19 02:07:51;;;;;;;4.70;4.40;;;11.60;99.90;;;;;;5008415;28;20526;-82
2021/05/19 02:10:18;;;;;;;4.87;4.47;;;11.70;99.90;;;;;;5007064;28;20229;-83
2021/05/19 02:12:44;;;;;;;4.30;4.00;;;11.70;99.90;;;;;;5007068;28;20576;-82
2021/05/19 02:15:16;;;;;;;4.37;3.97;;;11.70;99.90;;;;;;5006796;28;20739;-81
2021/05/19 02:17:42;;;;;;;4.60;4.20;;;11.70;99.90;;;;;;5006641;28;20663;-82
2021/05/19 02:20:11;;;;;;;4.13;3.83;;;11.70;99.90;;;;;;5006460;28;20583;-82
2021/05/19 02:22:37;;;;;;;4.00;3.50;;;11.70;99.90;;;;;;5006756;28;20210;-82
2021/05/19 02:25:04;;;;;;;4.23;3.90;;;11.70;99.90;;;;;;5006256;28;20260;-79
2021/05/19 02:27:31;;;;;;;4.17;3.87;;;11.70;99.90;;;;;;5006418;28;20217;-79
2021/05/19 02:29:57;;;;;;;4.90;4.50;;;11.70;99.90;;;;;;5005985;28;20244;-79
2021/05/19 02:32:24;;;;;;;4.00;3.70;;;11.60;99.90;;;;;;5006022;28;20684;-79
2021/05/19 02:34:50;;;;;;;5.17;4.43;;;11.60;99.90;;;;;;5005840;28;20217;-79
2021/05/19 02:37:17;;;;;;;4.30;4.00;;;11.60;99.90;;;;;;5006216;28;20205;-79
2021/05/19 02:39:43;;;;;;;4.87;4.40;;;11.60;99.90;;;;;;5005944;28;20577;-80
2021/05/19 02:42:10;;;;;;;4.90;4.50;;;11.50;99.90;;;;;;5006026;28;20252;-79
2021/05/19 02:44:36;;;;;;;4.83;4.43;;;11.40;99.90;;;;;;5005395;28;20256;-80
2021/05/19 02:47:03;;;;;;;5.27;4.77;;;11.40;99.90;;;;;;5006028;28;20218;-80
2021/05/19 02:49:30;;;;;;;4.33;4.03;;;11.30;99.90;;;;;;5005940;28;20213;-80
2021/05/19 02:51:56;;;;;;;4.83;4.50;;;11.30;99.90;;;;;;5005801;28;20710;-80
2021/05/19 02:54:22;;;;;;;4.53;4.23;;;11.10;99.90;;;;;;5005926;28;20612;-80
2021/05/19 02:56:48;;;;;;;5.30;4.90;;;11.10;99.90;;;;;;5006615;28;20205;-84
2021/05/19 02:59:15;;;;;;;4.63;4.33;;;11.00;99.90;;;;;;5007368;28;20262;-86
2021/05/19 03:01:41;;;;;;;4.60;4.20;;;11.00;99.90;;;;;;5010872;28;20209;-85
2021/05/19 03:04:08;;;;;;;5.83;4.50;;;11.10;99.90;;;;;;5009807;28;20209;-77
2021/05/19 03:06:35;;;;;;;4.53;4.27;;;11.10;99.90;;;;;;5007732;28;20730;-81
2021/05/19 03:09:01;;;;;;;4.53;4.27;;;11.20;99.90;;;;;;5010998;28;20252;-86
2021/05/19 03:11:28;;;;;;;4.97;4.50;;;11.30;99.90;;;;;;5010207;28;20209;-88
2021/05/19 03:13:54;;;;;;;4.90;4.50;;;11.40;99.90;;;;;;4992153;28;20653;-82
2021/05/19 03:16:20;;;;;;;4.90;4.50;;;11.40;99.90;;;;;;4998086;28;20205;-85
2021/05/19 03:18:46;;;;;;;4.73;4.13;;;11.50;99.90;;;;;;5007541;28;20213;-84
2021/05/19 03:21:13;;;;;;;4.60;4.30;;;11.50;99.90;;;;;;5008539;28;20648;-82
2021/05/19 03:23:40;;;;;;;5.20;4.77;;;11.50;99.90;;;;;;5008494;28;21158;-83
2021/05/19 03:26:07;;;;;;;5.17;4.67;;;11.30;99.90;;;;;;5007762;28;20585;-83
2021/05/19 03:28:34;;;;;;;4.70;4.20;;;11.40;99.90;;;;;;5007952;28;20247;-82
2021/05/19 03:31:00;;;;;;;5.00;4.60;;;11.40;99.90;;;;;;5008269;28;20252;-84
2021/05/19 03:33:26;;;;;;;5.40;4.90;;;11.50;99.90;;;;;;5008735;28;20217;-83
2021/05/19 03:35:52;;;;;;;5.40;5.00;;;11.60;99.90;;;;;;5008250;28;20270;-83
2021/05/19 03:38:19;;;;;;;4.90;4.60;;;11.60;99.90;;;;;;5008664;28;20206;-85
2021/05/19 03:40:46;;;;;;;5.33;4.80;;;11.70;99.90;;;;;;5008901;28;20259;-87
2021/05/19 03:43:13;;;;;;;5.07;4.77;;;11.70;99.90;;;;;;5009179;28;20265;-85
2021/05/19 03:45:39;;;;;;;5.10;4.80;;;11.80;99.90;;;;;;5009611;28;20237;-86
2021/05/19 03:48:06;;;;;;;5.03;4.73;;;11.70;99.90;;;;;;5009840;28;20262;-85
2021/05/19 03:50:33;;;;;;;6.30;5.70;;;11.60;99.90;;;;;;5009365;28;20205;-85
2021/05/19 03:53:01;;;;;;;5.50;5.10;;;11.60;99.90;;;;;;5009387;28;20210;-85
2021/05/19 03:55:28;;;;;;;5.50;5.00;;;11.60;99.90;;;;;;5009122;28;20297;-85
2021/05/19 03:57:56;;;;;;;6.03;5.53;;;11.60;99.90;;;;;;5009172;28;20225;-85
2021/05/19 04:00:24;;;;;;;7.47;6.43;;;11.60;99.90;;;;;;5006970;28;20267;-84
2021/05/19 04:02:50;;;;;;;6.57;6.03;;;11.60;99.90;;;;;;5005572;28;20206;-83
2021/05/19 04:05:17;;;;;;;5.83;5.33;;;11.50;99.90;;;;;;5009166;28;20229;-84
2021/05/19 04:07:44;;;;;;;5.80;5.40;;;11.60;99.90;;;;;;5009005;28;20213;-83
2021/05/19 04:10:11;;;;;;;6.13;5.53;;;11.40;99.90;;;;;;5008596;28;20233;-82
2021/05/19 04:12:37;;;;;;;6.37;5.97;;;11.50;99.90;;;;;;5007810;28;20208;-85
2021/05/19 04:15:06;;;;;;;6.83;5.97;;;11.60;99.90;;;;;;5009667;28;20229;-84
2021/05/19 04:17:32;;;;;;;6.47;5.70;;;11.60;99.90;;;;;;5008080;28;20258;-84
2021/05/19 04:19:58;;;;;;;6.10;5.50;;;11.60;99.90;;;;;;5009602;28;20263;-84
2021/05/19 04:22:24;;;;;;;5.97;5.47;;;11.60;99.90;;;;;;5008794;28;20193;-83
2021/05/19 04:24:50;;;;;;;6.60;5.93;;;11.40;99.90;;;;;;5008130;28;20281;-82
2021/05/19 04:27:16;;;;;;;6.10;5.70;;;11.40;99.90;;;;;;5008388;28;20712;-83
2021/05/19 04:29:42;;;;;;;6.17;5.70;;;11.30;99.90;;;;;;5008741;28;20214;-83
2021/05/19 04:32:11;;;;;;;6.07;5.57;;;11.30;99.90;;;;;;5008216;28;20285;-82
2021/05/19 04:34:38;;;;;;;5.80;5.37;;;11.40;99.90;;;;;;5007376;28;20212;-83
2021/05/19 04:37:04;;;;;;;6.53;6.03;;;11.50;99.90;;;;;;5005522;28;20283;-83
2021/05/19 04:39:30;;;;;;;6.53;6.03;;;11.50;99.90;;;;;;5007839;28;20210;-84
2021/05/19 04:41:57;;;;;;;6.10;5.60;;;11.60;99.90;;;;;;5007598;28;20254;-83
2021/05/19 04:44:23;;;;;;;6.80;6.10;;;11.60;99.90;;;;;;5006898;28;20274;-82
2021/05/19 04:46:49;;;;;;;7.57;6.07;;;11.60;99.90;;;;;;5007502;28;20208;-83
2021/05/19 04:49:16;;;;;;;7.03;6.40;;;11.60;99.90;;;;;;5007212;28;20204;-83
2021/05/19 04:51:43;;;;;;;6.97;6.37;;;11.50;99.90;;;;;;5007555;28;20209;-82
2021/05/19 04:54:09;;;;;;;7.00;6.30;;;11.30;99.90;;;;;;5007265;28;20206;-82
2021/05/19 04:56:36;;;;;;;6.43;5.93;;;11.30;99.90;;;;;;5007577;28;20205;-82
2021/05/19 04:59:03;;;;;;;7.33;6.63;;;11.40;99.90;;;;;;5007672;28;20243;-83
2021/05/19 05:01:30;;;;;;;7.00;6.30;;;11.30;99.90;;;;;;5008098;28;20205;-83
2021/05/19 05:03:56;;;;;;;6.13;5.67;;;11.30;99.90;;;;;;5006827;28;20675;-83
2021/05/19 05:06:23;;;;;;;7.20;6.60;;;11.30;99.90;;;;;;5007371;28;20253;-83
2021/05/19 05:08:49;;;;;;;9.43;8.53;;;11.40;99.90;;;;;;5007831;28;20241;-83
2021/05/19 05:11:15;;;;;;;8.97;8.17;;;11.40;99.90;;;;;;5007625;28;20202;-83
2021/05/19 05:13:41;;;;;;;8.20;6.60;;;11.40;99.90;;;;;;5007256;28;20210;-82
2021/05/19 05:16:07;;;;;;;6.13;5.63;;;11.40;99.90;;;;;;5007074;28;20729;-83
2021/05/19 05:18:35;;;;;;;6.30;5.80;;;11.50;99.90;;;;;;5007336;28;20206;-82
2021/05/19 05:21:01;;;;;;;5.80;5.10;;;11.60;99.90;;;;;;5007310;28;20682;-84
2021/05/19 05:23:29;;;;;;;6.67;5.23;;;11.70;99.90;;;;;;5006144;28;20198;-84
2021/05/19 05:25:55;;;;;;;5.90;5.40;;;11.80;99.90;;;;;;5007326;28;20225;-83
2021/05/19 05:28:21;;;;;;;6.37;5.87;;;11.70;99.90;;;;;;5006946;28;20660;-82
2021/05/19 05:30:48;;;;;;;5.77;5.37;;;11.70;99.90;;;;;;5006943;28;20198;-83
2021/05/19 05:33:14;;;;;;;5.73;5.17;;;11.60;99.90;;;;;;5007695;28;20202;-83
2021/05/19 05:35:41;;;;;;;6.20;5.60;;;11.50;99.90;;;;;;5006869;28;20201;-82
2021/05/19 05:38:07;;;;;;;5.60;5.23;;;11.50;99.90;;;;;;5003091;28;20214;-87
2021/05/19 05:40:35;;;;;;;6.40;5.90;;;11.60;99.90;;;;;;5002325;28;20213;-81
2021/05/19 05:43:02;;;;;;;6.40;5.80;;;11.60;99.90;;;;;;5007085;28;20750;-83
2021/05/19 05:45:28;;;;;;;6.07;5.63;;;11.50;99.90;;;;;;5007167;28;20229;-85
2021/05/19 05:47:55;;;;;;;7.13;5.07;;;11.50;99.90;;;;;;5007583;28;20206;-83
2021/05/19 05:50:21;;;;;;;5.43;4.93;;;11.50;99.90;;;;;;5006531;28;20202;-84
2021/05/19 05:52:47;;;;;;;4.63;4.23;;;11.50;99.90;;;;;;5006959;28;20680;-83
2021/05/19 05:55:14;;;;;;;5.23;4.70;;;11.70;99.90;;;;;;5007607;28;20213;-85
2021/05/19 05:57:41;;;;;;;5.17;4.77;;;11.70;99.90;;;;;;5007234;28;20241;-82
2021/05/19 06:00:10;;;;;;;5.00;4.60;;;11.80;99.90;;;;;;5005394;28;20278;-83
2021/05/19 06:02:36;;;;;;;5.40;4.97;;;11.70;99.90;;;;;;5006427;28;20565;-82
2021/05/19 06:05:02;;;;;;;5.20;4.80;;;11.70;99.90;;;;;;5006119;28;20221;-82
2021/05/19 06:07:28;;;;;;;5.20;4.90;;;11.80;99.90;;;;;;5006635;28;20206;-82
2021/05/19 06:09:55;;;;;;;4.87;4.50;;;11.90;99.90;;;;;;5006281;28;20225;-83
2021/05/19 06:12:21;;;;;;;4.77;4.47;;;12.00;99.90;;;;;;5005827;28;20198;-82
2021/05/19 06:14:48;;;;;;;4.67;4.37;;;12.20;99.90;;;;;;5005557;28;20623;-82
2021/05/19 06:17:15;;;;;;;5.40;4.30;;;12.20;99.90;;;;;;5005936;28;20243;-82
2021/05/19 06:19:42;;;;;;;6.10;3.70;;;12.20;99.90;;;;;;5005330;28;20667;-82
2021/05/19 06:22:09;;;;;;;7.30;4.30;;;12.30;99.90;;;;;;5005930;28;20448;-82
2021/05/19 06:24:36;;;;;;;4.87;4.47;;;12.30;99.90;;;;;;5005082;28;20206;-83
2021/05/19 06:27:02;;;;;;;5.10;4.60;;;12.30;99.90;;;;;;5007806;28;20305;-87
2021/05/19 06:29:29;;;;;;;4.50;4.10;;;12.30;99.90;;;;;;5007962;28;20658;-82
2021/05/19 06:31:56;;;;;;;4.90;4.43;;;12.40;99.90;;;;;;5004509;28;20663;-82
2021/05/19 06:34:22;;;;;;;5.33;3.97;;;12.40;99.90;;;;;;5004623;28;20614;-82
2021/05/19 06:36:51;;;;;;;4.60;3.60;;;12.30;99.90;;;;;;5006275;28;20228;-82
2021/05/19 06:39:19;;;;;;;4.00;3.60;;;12.30;99.90;;;;;;5006387;28;20221;-83
2021/05/19 06:41:48;;;;;;;3.30;3.10;;;12.30;99.90;;;;;;5005508;28;20209;-82
2021/05/19 06:44:14;;;;;;;4.53;3.37;;;12.30;99.90;;;;;;5005508;28;20242;-81
2021/05/19 06:46:41;;;;;;;3.83;3.53;;;12.40;99.90;;;;;;5005773;28;20237;-82
2021/05/19 06:49:08;;;;;;;4.33;4.03;;;12.40;99.90;;;;;;5006283;28;20408;-82
2021/05/19 06:51:35;;;;;;;4.17;3.90;;;12.50;99.90;;;;;;5005530;28;20260;-82
2021/05/19 06:54:01;;;;;;;3.97;3.67;;;12.60;99.90;;;;;;5006243;28;20217;-81
2021/05/19 06:56:28;;;;;;;4.07;3.80;;;12.70;99.90;;;;;;5005968;28;20206;-82
2021/05/19 06:58:54;;;;;;;3.47;3.27;;;12.80;99.90;;;;;;5005667;28;20643;-82
2021/05/19 07:01:21;;;;;;;4.13;3.93;;;12.90;99.90;;;;;;5005949;28;20205;-83
2021/05/19 07:03:49;;;;;;;4.90;4.60;;;13.00;99.90;;;;;;5005884;28;20224;-84
2021/05/19 07:06:16;;;;;;;3.97;3.50;;;13.10;99.90;;;;;;5005457;28;20230;-81
2021/05/19 07:08:43;;;;;;;3.00;2.80;;;12.90;99.90;;;;;;5005258;28;20606;-80
2021/05/19 07:11:09;;;;;;;3.77;3.27;;;12.80;99.90;;;;;;5005059;28;20206;-80
2021/05/19 07:13:35;;;;;;;3.70;3.50;;;12.80;99.90;;;;;;5004716;28;20221;-82
2021/05/19 07:16:02;;;;;;;4.23;3.93;;;12.70;99.90;;;;;;5005422;28;20261;-82
2021/05/19 07:18:28;;;;;;;3.97;3.67;;;12.70;99.90;;;;;;5002736;28;20202;-83
2021/05/19 07:20:55;;;;;;;3.63;3.33;;;12.70;99.90;;;;;;5003088;28;20209;-84
2021/05/19 07:23:22;;;;;;;6.60;3.30;;;12.70;99.90;;;;;;5006337;28;20205;-84
2021/05/19 07:25:49;;;;;;;3.50;3.30;;;12.80;99.90;;;;;;5005535;28;20233;-85
2021/05/19 07:28:16;;;;;;;3.47;3.20;;;12.80;99.90;;;;;;5006250;28;20214;-84
2021/05/19 07:30:43;;;;;;;3.30;3.07;;;12.70;99.90;;;;;;5005911;28;20302;-83
2021/05/19 07:33:11;;;;;;;3.20;3.00;;;12.80;99.90;;;;;;5006056;28;20252;-84
2021/05/19 07:35:38;;;;;;;5.37;2.57;;;12.90;99.90;;;;;;5006497;28;20296;-83
2021/05/19 07:38:05;;;;;;;3.00;2.70;;;13.00;99.90;;;;;;5006359;28;20621;-83
2021/05/19 07:40:33;;;;;;;3.10;2.80;;;13.10;99.90;;;;;;5006704;28;20214;-83
2021/05/19 07:42:59;;;;;;;2.90;2.70;;;13.10;99.90;;;;;;5005830;28;20269;-84
2021/05/19 07:45:25;;;;;;;2.97;2.77;;;13.10;99.90;;;;;;5006311;28;20246;-83
2021/05/19 07:47:52;;;;;;;2.80;2.70;;;13.20;99.90;;;;;;5008732;28;20239;-83
2021/05/19 07:50:18;;;;;;;3.00;2.77;;;13.20;99.90;;;;;;5010095;28;20210;-83
2021/05/19 07:52:44;;;;;;;3.23;2.97;;;13.10;99.90;;;;;;5009820;28;20220;-84
2021/05/19 07:55:19;;;;;;;2.40;2.30;;;13.00;99.90;;;;;;5009324;28;20624;-83
2021/05/19 07:57:49;;;;;;;4.00;2.67;;;13.00;99.90;;;;;;5009487;28;20238;-84
2021/05/19 08:00:19;;;;;;;3.33;2.47;;;13.20;99.90;;;;;;5009727;28;20209;-83
2021/05/19 08:02:45;;;;;;;5.03;2.77;;;13.30;99.90;;;;;;5009394;28;20322;-84
2021/05/19 08:05:12;;;;;;;2.80;2.60;;;13.40;99.90;;;;;;5009319;28;20265;-84
2021/05/19 08:07:38;;;;;;;2.73;2.63;;;13.50;99.90;;;;;;5009426;28;20289;-84
2021/05/19 08:10:05;;;;;;;3.80;3.60;;;13.70;99.90;;;;;;5009640;28;20238;-83
2021/05/19 08:12:32;;;;;;;3.47;3.17;;;13.70;99.90;;;;;;5009650;28;20262;-83
2021/05/19 08:14:59;;;;;;;3.60;3.23;;;13.70;99.90;;;;;;5010328;28;20214;-83
2021/05/19 08:17:26;;;;;;;3.07;2.87;;;13.50;99.90;;;;;;5009631;28;20202;-84
2021/05/19 08:19:52;;;;;;;4.07;3.77;;;13.30;99.90;;;;;;5009211;28;20206;-82
2021/05/19 08:22:18;;;;;;;3.37;3.17;;;13.30;99.90;;;;;;5009712;28;20224;-84
2021/05/19 08:24:45;;;;;;;3.27;3.07;;;13.50;99.90;;;;;;5009259;28;20206;-83
2021/05/19 08:27:12;;;;;;;3.10;2.90;;;13.60;99.90;;;;;;5009207;28;20278;-83
2021/05/19 08:29:38;;;;;;;3.57;3.27;;;13.60;99.90;;;;;;5009186;28;20213;-83
2021/05/19 08:32:06;;;;;;;3.10;2.60;;;13.70;99.90;;;;;;5008980;28;20212;-83
2021/05/19 08:34:33;;;;;;;2.57;2.47;;;13.70;99.90;;;;;;5009503;28;20254;-83
2021/05/19 08:36:59;;;;;;;2.53;2.43;;;13.70;99.90;;;;;;5009126;28;20666;-83
2021/05/19 08:39:25;;;;;;;2.57;2.37;;;13.90;99.90;;;;;;5009469;28;20728;-84
2021/05/19 08:41:51;;;;;;;2.37;2.20;;;13.90;99.90;;;;;;5008594;28;20206;-83
2021/05/19 08:44:19;;;;;;;3.73;2.30;;;13.90;99.90;;;;;;5008389;28;20298;-84
2021/05/19 08:46:47;;;;;;;2.47;2.37;;;13.90;99.90;;;;;;5009046;28;20437;-84
2021/05/19 08:49:15;;;;;;;2.70;2.50;;;14.00;99.90;;;;;;5008683;28;20702;-84
2021/05/19 08:51:44;;;;;;;2.70;2.50;;;14.20;99.90;;;;;;5008600;28;20277;-84
2021/05/19 08:54:11;;;;;;;3.93;2.90;;;14.40;99.90;;;;;;5009082;28;20260;-85
2021/05/19 08:56:39;;;;;;;2.37;2.23;;;14.40;99.90;;;;;;5008505;28;20300;-83
2021/05/19 08:59:06;;;;;;;2.27;2.07;;;14.40;99.90;;;;;;5008496;28;20220;-83
2021/05/19 09:01:40;;;;;;;2.83;2.20;;;14.40;99.90;;;;;;5008688;28;20206;-84
2021/05/19 09:04:11;;;;;;;2.63;2.33;;;14.50;99.90;;;;;;5008535;28;20243;-83
2021/05/19 09:06:38;;;;;;;2.97;2.20;;;14.60;99.90;;;;;;5008685;27;20617;-84
2021/05/19 09:09:22;;;;;;;2.07;1.97;;;14.60;99.90;;;;;;5009291;28;20236;-83
2021/05/19 09:11:57;;;;;;;2.50;2.30;;;14.70;99.90;;;;;;5009476;28;20233;-83
2021/05/19 09:14:24;;;;;;;3.07;2.30;;;14.60;99.90;;;;;;5008917;28;20699;-84
2021/05/19 09:16:50;;;;;;;3.90;2.00;;;14.60;99.90;;;;;;5009172;28;20206;-82
2021/05/19 09:19:31;;;;;;;2.27;2.07;;;14.70;99.90;;;;;;5008674;28;20213;-84
2021/05/19 09:21:58;;;;;;;4.27;2.77;;;14.70;99.90;;;;;;5008314;28;20198;-84
2021/05/19 09:24:32;;;;;;;8.77;2.30;;;14.70;99.90;;;;;;5008247;28;20205;-87
2021/05/19 09:27:00;;;;;;;2.30;2.20;;;14.90;99.90;;;;;;5008281;28;20232;-86
2021/05/19 09:29:28;;;;;;;4.53;2.90;;;15.00;99.90;;;;;;5008493;28;20216;-84
2021/05/19 09:31:56;;;;;;;2.17;2.03;;;15.10;99.90;;;;;;5008046;28;20205;-83
2021/05/19 09:34:28;;;;;;;3.00;1.87;;;14.80;99.90;;;;;;5008529;28;20254;-84
2021/05/19 09:37:03;;;;;;;1.93;1.80;;;14.70;99.90;;;;;;5008310;28;20256;-84
2021/05/19 09:39:44;;;;;;;2.40;2.20;;;14.60;99.90;;;;;;5008031;28;20648;-85
2021/05/19 09:42:10;;;;;;;2.37;1.67;;;14.60;99.90;;;;;;5008240;28;20190;-84
2021/05/19 09:44:36;;;;;;;2.10;2.00;;;14.70;99.90;;;;;;5007746;28;20298;-83
2021/05/19 09:47:03;;;;;;;4.13;3.73;;;14.80;99.90;;;;;;5008625;28;20306;-83
2021/05/19 09:49:29;;;;;;;3.30;2.30;;;14.90;99.90;;;;;;5007680;28;20624;-84
2021/05/19 09:51:57;;;;;;;2.43;2.20;;;14.90;99.90;;;;;;5007593;28;20209;-83
2021/05/19 09:54:29;;;;;;;2.40;2.20;;;14.90;99.90;;;;;;5007800;28;20292;-83
2021/05/19 09:56:59;;;;;;;1.90;1.63;;;15.20;99.90;;;;;;5007861;28;20206;-83
2021/05/19 09:59:25;;;;;;;1.80;1.70;;;15.10;99.90;;;;;;5007841;28;20210;-84
2021/05/19 10:01:51;;;;;;;1.93;1.60;;;15.00;99.90;;;;;;5007897;28;20205;-83
2021/05/19 10:04:19;;;;;;;2.70;1.70;;;15.00;99.90;;;;;;5007544;28;20583;-83
2021/05/19 10:06:47;;;;;;;3.10;2.00;;;15.30;99.90;;;;;;5006972;28;20233;-83
2021/05/19 10:09:13;;;;;;;1.90;1.80;;;15.30;99.90;;;;;;5006638;28;20229;-83
2021/05/19 10:11:41;;;;;;;1.50;1.50;;;15.20;99.90;;;;;;5007528;28;20818;-85
2021/05/19 10:14:11;;;;;;;1.60;1.50;;;14.90;99.90;;;;;;5007787;28;20213;-83
2021/05/19 10:16:40;;;;;;;1.80;1.70;;;15.10;99.90;;;;;;5007609;28;20224;-85
2021/05/19 10:19:08;;;;;;;2.10;1.90;;;15.20;99.90;;;;;;5007293;28;20574;-84
2021/05/19 10:21:36;;;;;;;1.50;1.40;;;15.20;99.90;;;;;;5007260;28;20205;-83
2021/05/19 10:24:05;;;;;;;1.90;1.50;;;15.20;99.90;;;;;;5007317;28;20621;-83
2021/05/19 10:26:33;;;;;;;1.60;1.50;;;15.40;99.90;;;;;;5007217;28;20657;-84
2021/05/19 10:29:00;;;;;;;1.20;1.20;;;15.40;99.90;;;;;;5007352;28;20206;-83
2021/05/19 10:31:30;;;;;;;1.40;1.30;;;15.50;99.90;;;;;;5007220;28;20213;-83
2021/05/19 10:33:57;;;;;;;1.70;1.60;;;15.60;99.90;;;;;;5007178;28;20197;-83
2021/05/19 10:36:45;;;;;;;1.50;1.40;;;15.70;99.90;;;;;;5007074;28;20806;-83
2021/05/19 10:39:22;;;;;;;1.50;1.40;;;15.60;99.90;;;;;;5009464;28;20217;-83
2021/05/19 10:41:50;;;;;;;1.70;1.60;;;15.80;99.90;;;;;;5007031;28;20209;-83
2021/05/19 10:44:17;;;;;;;2.00;1.67;;;16.10;99.90;;;;;;5006684;28;20714;-84
2021/05/19 10:47:06;;;;;;;2.40;1.43;;;16.10;99.90;;;;;;5006727;28;20721;-83
2021/05/19 10:50:10;;;;;;;1.90;1.40;;;16.10;99.90;;;;;;5007228;28;20562;-83
2021/05/19 10:58:56;;;;;;;1.77;1.50;;;16.20;99.90;;;;;;5006586;28;20196;-83
2021/05/19 11:01:54;;;;;;;1.40;1.30;;;16.40;99.90;;;;;;5006276;28;20201;-83
2021/05/19 11:04:23;;;;;;;1.40;1.30;;;16.60;99.90;;;;;;5006526;28;20599;-83
2021/05/19 11:07:06;;;;;;;2.03;1.40;;;16.60;99.90;;;;;;5006259;28;20241;-84
2021/05/19 11:09:40;;;;;;;1.40;1.30;;;16.10;99.90;;;;;;5006552;28;20237;-83
2021/05/19 11:12:38;;;;;;;1.80;1.37;;;16.00;99.90;;;;;;5006446;28;20292;-83
2021/05/19 11:15:50;;;;;;;9.70;2.40;;;16.30;99.90;;;;;;5006522;28;20210;-83
2021/05/19 11:18:21;;;;;;;2.40;1.43;;;16.60;99.90;;;;;;5005982;28;20217;-83
2021/05/19 11:20:48;;;;;;;1.80;1.63;;;17.00;99.90;;;;;;5006712;28;20632;-84
2021/05/19 11:23:16;;;;;;;1.70;1.60;;;17.10;99.90;;;;;;5009666;28;20209;-83
2021/05/19 11:25:42;;;;;;;1.73;1.63;;;17.10;99.90;;;;;;5009495;28;20233;-83
2021/05/19 11:28:08;;;;;;;1.53;1.40;;;17.30;99.90;;;;;;5009192;28;20206;-83
2021/05/19 11:30:35;;;;;;;1.90;1.57;;;17.50;99.90;;;;;;5009149;28;20241;-83
2021/05/19 11:33:02;;;;;;;1.63;1.53;;;17.40;99.90;;;;;;5009219;28;20308;-83
2021/05/19 11:35:29;;;;;;;1.83;1.37;;;17.40;99.70;;;;;;5009022;28;20578;-82
2021/05/19 11:37:57;;;;;;;1.10;1.10;;;17.60;99.20;;;;;;5008974;28;20213;-82
2021/05/19 11:40:36;;;;;;;1.10;1.10;;;17.30;98.80;;;;;;5009090;28;20212;-81
2021/05/19 11:43:03;;;;;;;1.37;1.30;;;17.20;99.20;;;;;;5008805;28;20241;-82
2021/05/19 11:45:31;;;;;;;1.10;1.10;;;17.10;98.50;;;;;;5009153;28;20229;-82
2021/05/19 11:47:57;;;;;;;3.53;1.40;;;16.90;98.20;;;;;;5009005;28;20218;-82
2021/05/19 11:50:25;;;;;;;1.40;1.40;;;17.20;98.80;;;;;;5009117;28;20668;-81
2021/05/19 11:52:56;;;;;;;1.27;1.27;;;17.60;98.70;;;;;;5008772;28;20292;-82
2021/05/19 11:55:29;;;;;;;1.07;1.00;;;17.50;98.10;;;;;;5009030;28;20234;-82
2021/05/19 11:58:09;;;;;;;1.43;1.33;;;17.70;98.90;;;;;;5008866;28;20252;-81
2021/05/19 12:00:39;;;;;;;1.37;1.27;;;18.20;99.70;;;;;;5008970;28;20206;-82
2021/05/19 12:03:06;;;;;;;1.47;1.30;;;18.60;98.30;;;;;;5008546;28;20216;-81
2021/05/19 12:05:48;;;;;;;1.60;1.50;;;18.80;97.80;;;;;;5008352;28;20240;-82
2021/05/19 12:08:16;;;;;;;1.50;1.40;;;18.60;97.60;;;;;;5008162;28;20236;-82
2021/05/19 12:10:44;;;;;;;1.10;1.10;;;18.90;97.90;;;;;;5008624;28;20202;-81
2021/05/19 12:13:11;;;;;;;1.40;1.20;;;18.60;96.90;;;;;;5008145;28;20212;-82
2021/05/19 12:15:39;;;;;;;1.63;1.50;;;18.50;96.40;;;;;;5008187;28;20575;-82
2021/05/19 12:18:06;;;;;;;1.40;1.37;;;18.70;97.10;;;;;;5008262;28;20209;-82
2021/05/19 12:20:34;;;;;;;1.73;1.37;;;18.50;96.30;;;;;;5008274;28;20294;-82
2021/05/19 12:23:03;;;;;;;1.50;1.40;;;18.80;97.20;;;;;;5008423;28;20209;-82
2021/05/19 12:25:30;;;;;;;2.43;1.27;;;18.90;97.40;;;;;;5008307;28;20228;-82
2021/05/19 12:28:01;;;;;;;1.47;1.30;;;19.10;97.40;;;;;;5008175;28;20201;-82
2021/05/19 12:30:27;;;;;;;1.70;1.60;;;19.30;98.10;;;;;;5008362;28;20212;-82
2021/05/19 12:32:57;;;;;;;1.90;1.50;;;19.30;96.90;;;;;;5007495;28;20210;-82
2021/05/19 12:35:26;;;;;;;2.90;1.40;;;19.20;97.00;;;;;;5007807;28;20721;-82
2021/05/19 12:37:58;;;;;;;23.50;1.50;;;19.30;97.20;;;;;;5007822;28;20214;-80
2021/05/19 12:40:26;;;;;;;1.53;1.47;;;19.30;94.60;;;;;;5007937;28;20217;-82
2021/05/19 12:42:55;;;;;;;2.27;1.40;;;19.40;96.00;;;;;;5007597;28;20249;-82
2021/05/19 12:45:24;;;;;;;5.50;1.90;;;19.60;96.80;;;;;;5007961;28;20213;-82
2021/05/19 12:47:59;;;;;;;1.53;1.43;;;19.70;96.70;;;;;;5007972;28;20243;-82
2021/05/19 12:50:26;;;;;;;3.97;1.60;;;19.70;96.00;;;;;;5008176;28;20280;-82
2021/05/19 12:52:52;;;;;;;3.30;1.77;;;20.00;96.20;;;;;;5007781;28;20209;-83
2021/05/19 12:55:22;;;;;;;2.03;1.40;;;20.30;96.40;;;;;;5007366;28;20770;-83
2021/05/19 12:57:48;;;;;;;1.47;1.40;;;20.20;95.10;;;;;;5007898;28;20194;-85
2021/05/19 13:00:18;;;;;;;3.00;1.30;;;19.80;95.50;;;;;;5007135;28;20686;-82